^^
Datos históricos de la estación: Murcia-Puente Tocinos
Diario Informe para Mayo 24, 2019 Unidades:  Métrico    Inglés   Ambas
Diario Semanal Mensual Anual Configurable
  Máximo: Mínimo: Media:
Temperatura: 23.8 °C 16.3 °C 19.3 °C
Punto de rocio: 16.3 °C 8.1 °C 13.1 °C
Humedad: 86% 37% 69%
Velocidad viento: 29.1km/h 0.0km/h 9.7km/h
Racha viento: 42.6km/h - -
Viento- - ESE
Presión: 1014.1 hPa 1010.5 hPa -
Precipitación: 3.3 mm    
Historical Graphs
 
 
Tabla de datos para Mayo 24, 2019
Hora Temperatura Punto de rocio Presión Viento Velocidad viento Racha viento Humedad Intensidad lluvia(por hora) Nubes
00:04 19.6 °C 16.1 °C 1013.3 hPa ENE 9.5 km/h 14.0 km/h 80% 0.0 mm CLR
00:09 19.4 °C 16.1 °C 1013.3 hPa NNE 10.0 km/h 13.0 km/h 81% 0.0 mm CLR
00:14 19.3 °C 16.2 °C 1013.3 hPa NNE 10.0 km/h 16.7 km/h 82% 0.0 mm CLR
00:19 19.2 °C 16.1 °C 1013.2 hPa ENE 11.1 km/h 18.5 km/h 82% 0.0 mm CLR
00:24 19.2 °C 16.2 °C 1013.2 hPa NNE 11.1 km/h 12.2 km/h 83% 0.0 mm CLR
00:29 19.1 °C 16.2 °C 1013.2 hPa NNE 10.0 km/h 16.7 km/h 83% 0.0 mm CLR
00:34 19.1 °C 16.2 °C 1013.4 hPa NNE 10.0 km/h 14.8 km/h 83% 0.0 mm CLR
00:39 19.0 °C 16.1 °C 1013.4 hPa NNE 9.5 km/h 11.1 km/h 83% 0.0 mm CLR
00:44 18.9 °C 15.9 °C 1013.4 hPa NNE 9.5 km/h 9.3 km/h 83% 0.0 mm CLR
00:49 18.9 °C 16.1 °C 1013.3 hPa NE 7.6 km/h 11.1 km/h 84% 0.0 mm CLR
00:54 18.9 °C 16.1 °C 1013.3 hPa North 7.6 km/h 11.1 km/h 84% 0.0 mm CLR
00:59 18.9 °C 16.1 °C 1013.3 hPa NNE 6.9 km/h 11.1 km/h 84% 0.0 mm CLR
01:04 18.8 °C 16.1 °C 1013.2 hPa NNE 6.9 km/h 11.1 km/h 84% 0.0 mm CLR
01:09 18.8 °C 16.1 °C 1013.2 hPa NNE 8.4 km/h 11.1 km/h 84% 0.0 mm CLR
01:14 18.8 °C 16.1 °C 1013.2 hPa NNE 8.4 km/h 11.1 km/h 84% 0.0 mm CLR
01:19 18.7 °C 15.9 °C 1013.1 hPa NNE 7.6 km/h 13.0 km/h 84% 0.0 mm CLR
01:24 18.7 °C 16.1 °C 1013.1 hPa NNE 7.6 km/h 11.1 km/h 85% 0.0 mm CLR
01:29 18.7 °C 16.1 °C 1013.1 hPa ENE 8.7 km/h 13.0 km/h 85% 0.0 mm CLR
01:34 18.6 °C 16.0 °C 1013.0 hPa North 8.7 km/h 11.1 km/h 85% 0.0 mm CLR
01:39 18.7 °C 16.1 °C 1013.0 hPa NNE 7.6 km/h 11.1 km/h 85% 0.0 mm CLR
01:44 18.7 °C 15.9 °C 1013.0 hPa North 7.6 km/h 9.3 km/h 84% 0.0 mm CLR
01:49 18.7 °C 15.9 °C 1012.7 hPa NE 7.6 km/h 8.4 km/h 84% 0.0 mm CLR
01:54 18.6 °C 16.0 °C 1012.7 hPa ENE 7.6 km/h 9.3 km/h 85% 0.0 mm CLR
01:59 18.6 °C 16.0 °C 1012.7 hPa NE 5.0 km/h 5.6 km/h 85% 0.0 mm CLR
02:04 18.6 °C 16.0 °C 1012.6 hPa NE 5.0 km/h 7.4 km/h 85% 0.0 mm CLR
02:09 18.5 °C 15.9 °C 1012.6 hPa NE 4.7 km/h 5.8 km/h 85% 0.0 mm CLR
02:14 18.5 °C 16.1 °C 1012.6 hPa NE 4.7 km/h 5.6 km/h 86% 0.0 mm CLR
02:19 18.4 °C 16.0 °C 1012.4 hPa NE 4.7 km/h 7.4 km/h 86% 0.0 mm CLR
02:24 18.4 °C 16.0 °C 1012.4 hPa ENE 4.7 km/h 6.4 km/h 86% 0.0 mm CLR
02:29 18.4 °C 16.0 °C 1012.4 hPa ENE 4.7 km/h 7.4 km/h 86% 0.0 mm CLR
02:34 18.3 °C 15.7 °C 1012.0 hPa East 4.7 km/h 7.4 km/h 85% 0.0 mm CLR
02:39 18.3 °C 15.7 °C 1012.0 hPa East 3.2 km/h   85% 0.0 mm CLR
02:44 18.3 °C 15.7 °C 1012.0 hPa NW 3.2 km/h 4.7 km/h 85% 0.0 mm CLR
02:49 18.3 °C 15.7 °C 1012.1 hPa NW 2.3 km/h 7.4 km/h 85% 0.0 mm CLR
02:54 18.3 °C 15.6 °C 1012.1 hPa NW 2.3 km/h 3.7 km/h 84% 0.0 mm CLR
02:59 18.3 °C 15.6 °C 1012.1 hPa North 2.3 km/h 5.6 km/h 84% 0.0 mm CLR
03:04 18.3 °C 15.6 °C 1011.8 hPa North 2.3 km/h 5.6 km/h 84% 0.0 mm CLR
03:09 18.3 °C 15.7 °C 1011.8 hPa North 3.2 km/h 3.9 km/h 85% 0.0 mm CLR
03:14 18.3 °C 15.7 °C 1011.8 hPa North 3.2 km/h   85% 0.0 mm CLR
03:19 18.3 °C 15.7 °C 1011.8 hPa Calm     85% 0.0 mm CLR
03:24 18.3 °C 15.7 °C 1011.8 hPa Calm     85% 0.0 mm CLR
03:29 18.3 °C 15.7 °C 1011.8 hPa Calm     85% 0.0 mm CLR
03:34 18.3 °C 15.7 °C 1011.8 hPa Calm     85% 0.0 mm CLR
03:39 18.3 °C 15.7 °C 1011.8 hPa Calm     85% 0.0 mm CLR
03:44 18.2 °C 15.4 °C 1011.8 hPa Calm     84% 0.0 mm CLR
03:49 18.1 °C 15.2 °C 1011.5 hPa Calm     83% 0.0 mm CLR
03:54 18.1 °C 15.2 °C 1011.5 hPa Calm     83% 0.0 mm CLR
03:59 18.1 °C 15.2 °C 1011.5 hPa Calm     83% 0.0 mm CLR
04:04 18.0 °C 15.1 °C 1011.3 hPa Calm     83% 0.0 mm CLR
04:09 17.9 °C 14.8 °C 1011.3 hPa Calm   5.8 km/h 82% 0.0 mm CLR
04:14 17.8 °C 14.9 °C 1011.3 hPa Calm     83% 0.0 mm CLR
04:19 17.7 °C 14.6 °C 1011.3 hPa Calm     82% 0.0 mm CLR
04:24 17.7 °C 14.8 °C 1011.3 hPa Calm     83% 0.0 mm CLR
04:29 17.7 °C 14.8 °C 1011.3 hPa Calm     83% 0.0 mm CLR
04:34 17.6 °C 14.7 °C 1011.2 hPa Calm     83% 0.0 mm CLR
04:39 17.6 °C 14.7 °C 1011.2 hPa Calm     83% 0.0 mm CLR
04:44 17.6 °C 14.5 °C 1011.2 hPa Calm   5.6 km/h 82% 0.0 mm CLR
04:49 17.6 °C 14.3 °C 1011.2 hPa ESE 2.9 km/h 5.6 km/h 81% 0.0 mm CLR
04:54 17.7 °C 14.4 °C 1011.2 hPa ESE 2.9 km/h 6.4 km/h 81% 0.0 mm CLR
04:59 17.7 °C 14.4 °C 1011.2 hPa South 3.2 km/h 5.6 km/h 81% 0.0 mm CLR
05:04 17.7 °C 14.2 °C 1011.2 hPa South 3.2 km/h 3.9 km/h 80% 0.0 mm CLR
05:09 17.7 °C 14.2 °C 1011.2 hPa South 3.2 km/h 3.7 km/h 80% 0.0 mm CLR
05:14 17.8 °C 14.5 °C 1011.2 hPa South 3.2 km/h   81% 0.0 mm CLR
05:19 17.8 °C 14.3 °C 1011.0 hPa SE 2.3 km/h 6.4 km/h 80% 0.0 mm CLR
05:24 17.9 °C 14.0 °C 1011.0 hPa South 2.3 km/h 6.9 km/h 78% 0.0 mm CLR
05:29 17.9 °C 14.0 °C 1011.0 hPa South 5.0 km/h 7.4 km/h 78% 0.0 mm CLR
05:34 17.9 °C 14.0 °C 1010.8 hPa SE 5.0 km/h 9.3 km/h 78% 0.0 mm CLR
05:39 17.9 °C 13.8 °C 1010.8 hPa South 5.8 km/h 7.4 km/h 77% 0.0 mm CLR
05:44 17.9 °C 13.8 °C 1010.8 hPa South 5.8 km/h 5.6 km/h 77% 0.0 mm CLR
05:49 17.9 °C 13.8 °C 1010.9 hPa South 2.9 km/h   77% 0.0 mm CLR
05:54 17.9 °C 13.8 °C 1010.9 hPa South 2.9 km/h   77% 0.0 mm CLR
05:59 17.9 °C 13.8 °C 1010.9 hPa Calm     77% 0.0 mm CLR
06:04 17.8 °C 13.7 °C 1010.8 hPa Calm   3.7 km/h 77% 0.0 mm CLR
06:09 17.6 °C 13.9 °C 1010.8 hPa WNW 2.3 km/h 6.4 km/h 79% 0.0 mm CLR
06:14 17.4 °C 13.9 °C 1010.8 hPa WNW 2.3 km/h   80% 0.0 mm CLR
06:19 17.3 °C 14.0 °C 1010.8 hPa NW 2.3 km/h 7.4 km/h 81% 0.0 mm CLR
06:24 17.2 °C 14.1 °C 1010.8 hPa NW 2.3 km/h 5.8 km/h 82% 0.0 mm CLR
06:29 17.0 °C 14.1 °C 1010.8 hPa NW 3.9 km/h 3.7 km/h 83% 0.0 mm CLR
06:34 16.9 °C 14.0 °C 1010.8 hPa NW 3.9 km/h   83% 0.0 mm CLR
06:39 16.8 °C 13.9 °C 1010.8 hPa Calm     83% 0.0 mm CLR
06:44 16.8 °C 14.1 °C 1010.8 hPa Calm     84% 0.0 mm CLR
06:49 16.8 °C 14.1 °C 1010.6 hPa Calm     84% 0.0 mm CLR
06:54 16.8 °C 13.5 °C 1010.6 hPa Calm     81% 0.0 mm CLR
06:59 16.8 °C 13.5 °C 1010.6 hPa Calm     81% 0.0 mm CLR
07:04 16.8 °C 13.3 °C 1010.8 hPa Calm     80% 0.0 mm CLR
07:09 16.8 °C 13.5 °C 1010.8 hPa Calm   3.7 km/h 81% 0.0 mm CLR
07:14 16.9 °C 13.4 °C 1010.8 hPa Calm     80% 0.0 mm CLR
07:19 17.0 °C 13.3 °C 1010.8 hPa Calm   6.4 km/h 79% 0.0 mm CLR
07:24 17.1 °C 13.2 °C 1010.8 hPa Calm   7.4 km/h 78% 0.0 mm CLR
07:29 17.3 °C 13.4 °C 1010.8 hPa SSW 4.7 km/h 3.7 km/h 78% 0.0 mm CLR
07:34 17.4 °C 13.5 °C 1010.9 hPa SSW 4.7 km/h 5.6 km/h 78% 0.0 mm CLR
07:39 17.5 °C 13.4 °C 1010.9 hPa SSW 2.3 km/h 3.7 km/h 77% 0.0 mm CLR
07:44 17.6 °C 13.1 °C 1010.9 hPa SE 2.3 km/h 5.6 km/h 75% 0.0 mm CLR
07:49 17.6 °C 12.9 °C 1010.8 hPa SE 3.2 km/h 5.6 km/h 74% 0.0 mm CLR
07:54 17.6 °C 12.9 °C 1010.8 hPa SE 3.2 km/h 7.4 km/h 74% 0.0 mm CLR
07:59 17.5 °C 12.8 °C 1010.8 hPa SSE 3.9 km/h 7.4 km/h 74% 0.0 mm CLR
08:04 17.5 °C 12.8 °C 1010.8 hPa South 3.9 km/h 7.4 km/h 74% 0.0 mm CLR
08:09 17.5 °C 12.8 °C 1010.8 hPa SE 5.0 km/h 7.4 km/h 74% 0.0 mm CLR
08:14 17.5 °C 12.8 °C 1010.8 hPa ESE 5.0 km/h 7.4 km/h 74% 0.0 mm CLR
08:19 17.7 °C 13.2 °C 1010.6 hPa SE 5.8 km/h 7.4 km/h 75% 0.0 mm CLR
08:24 17.8 °C 13.1 °C 1010.6 hPa ESE 5.8 km/h 5.6 km/h 74% 0.0 mm CLR
08:29 17.8 °C 13.3 °C 1010.6 hPa SE 5.0 km/h 7.4 km/h 75% 0.0 mm CLR
08:34 17.8 °C 13.3 °C 1010.8 hPa SE 5.0 km/h 5.6 km/h 75% 0.0 mm CLR
08:39 17.9 °C 13.4 °C 1010.8 hPa SE 3.2 km/h 3.9 km/h 75% 0.0 mm CLR
08:44 17.9 °C 13.4 °C 1010.8 hPa SE 3.2 km/h 5.6 km/h 75% 0.0 mm CLR
08:49 18.1 °C 13.8 °C 1010.7 hPa SE 2.9 km/h   76% 0.0 mm CLR
08:54 18.4 °C 13.9 °C 1010.7 hPa ESE 2.9 km/h   75% 0.0 mm CLR
08:59 18.9 °C 13.9 °C 1010.7 hPa Calm   3.2 km/h 73% 0.0 mm CLR
09:04 19.3 °C 13.9 °C 1010.6 hPa Calm     71% 0.0 mm CLR
09:09 19.3 °C 13.9 °C 1010.6 hPa Calm     71% 0.0 mm CLR
09:14 19.4 °C 13.8 °C 1010.6 hPa Calm     70% 0.0 mm CLR
09:19 19.4 °C 13.8 °C 1010.7 hPa Calm     70% 0.0 mm CLR
09:24 19.4 °C 13.6 °C 1010.7 hPa Calm     69% 0.0 mm CLR
09:29 19.3 °C 13.4 °C 1010.7 hPa Calm   7.6 km/h 69% 0.0 mm CLR
09:34 19.2 °C 13.2 °C 1010.6 hPa Calm   7.4 km/h 68% 0.0 mm CLR
09:39 19.2 °C 13.2 °C 1010.6 hPa SSW 4.7 km/h 3.2 km/h 68% 0.0 mm CLR
09:44 19.3 °C 13.2 °C 1010.6 hPa SE 4.7 km/h 7.4 km/h 68% 0.0 mm CLR
09:49 19.4 °C 13.1 °C 1010.8 hPa SE 2.9 km/h 3.7 km/h 67% 0.0 mm CLR
09:54 19.5 °C 13.4 °C 1010.8 hPa West 2.9 km/h 3.9 km/h 68% 0.0 mm CLR
09:59 19.6 °C 14.0 °C 1010.8 hPa NNE 2.9 km/h 7.4 km/h 70% 0.0 mm CLR
10:04 19.6 °C 14.0 °C 1010.8 hPa NE 2.9 km/h 7.6 km/h 70% 0.0 mm CLR
10:09 19.6 °C 14.0 °C 1010.8 hPa NE 4.7 km/h 7.4 km/h 70% 0.0 mm CLR
10:14 19.5 °C 14.1 °C 1010.8 hPa ENE 4.7 km/h 7.6 km/h 71% 0.0 mm CLR
10:19 19.6 °C 14.2 °C 1010.8 hPa NE 5.0 km/h 7.4 km/h 71% 0.0 mm CLR
10:24 19.6 °C 14.2 °C 1010.8 hPa NE 5.0 km/h 8.4 km/h 71% 0.0 mm CLR
10:29 19.7 °C 14.3 °C 1010.8 hPa NNE 5.8 km/h 7.4 km/h 71% 0.0 mm CLR
10:34 19.7 °C 14.3 °C 1010.9 hPa NE 5.8 km/h 7.6 km/h 71% 0.0 mm CLR
10:39 19.7 °C 14.1 °C 1010.9 hPa NE 5.0 km/h 5.6 km/h 70% 0.0 mm CLR
10:44 19.8 °C 13.9 °C 1010.9 hPa NE 5.0 km/h 10.0 km/h 69% 0.0 mm CLR
10:49 19.9 °C 14.1 °C 1010.9 hPa NE 4.7 km/h 7.4 km/h 69% 0.0 mm CLR
10:54 19.9 °C 14.1 °C 1010.9 hPa NE 4.7 km/h 7.4 km/h 69% 0.0 mm CLR
10:59 20.1 °C 14.2 °C 1010.9 hPa NNE 4.7 km/h 7.4 km/h 69% 0.0 mm CLR
11:04 20.1 °C 14.0 °C 1010.9 hPa East 4.7 km/h 10.3 km/h 68% 0.0 mm CLR
11:09 20.2 °C 13.9 °C 1010.9 hPa NE 6.9 km/h 14.8 km/h 67% 0.0 mm CLR
11:14 20.4 °C 13.6 °C 1010.9 hPa NE 6.9 km/h 14.8 km/h 65% 0.0 mm CLR
11:19 20.6 °C 13.6 °C 1010.9 hPa NNE 10.0 km/h 13.0 km/h 64% 0.0 mm CLR
11:24 20.8 °C 13.3 °C 1010.9 hPa ENE 10.0 km/h 13.0 km/h 62% 0.0 mm CLR
11:29 20.9 °C 12.8 °C 1010.9 hPa North 10.0 km/h 20.4 km/h 60% 0.0 mm CLR
11:34 21.1 °C 13.1 °C 1011.0 hPa NE 10.0 km/h 24.1 km/h 60% 0.0 mm CLR
11:39 21.0 °C 13.2 °C 1011.0 hPa NNE 13.0 km/h 18.5 km/h 61% 0.0 mm CLR
11:44 21.0 °C 13.2 °C 1011.0 hPa ENE 13.0 km/h 22.2 km/h 61% 0.0 mm CLR
11:49 21.1 °C 13.6 °C 1011.0 hPa ENE 14.0 km/h 24.1 km/h 62% 0.0 mm CLR
11:54 21.2 °C 14.1 °C 1011.0 hPa NE 14.0 km/h 25.9 km/h 64% 0.0 mm CLR
11:59 21.3 °C 14.4 °C 1011.0 hPa NE 13.7 km/h 22.0 km/h 65% 0.0 mm CLR
12:04 21.2 °C 14.3 °C 1011.3 hPa ENE 13.7 km/h 27.8 km/h 65% 0.0 mm CLR
12:09 21.3 °C 14.7 °C 1011.3 hPa NE 17.2 km/h 20.4 km/h 66% 0.0 mm CLR
12:14 21.4 °C 15.0 °C 1011.3 hPa ENE 17.2 km/h 20.4 km/h 67% 0.0 mm CLR
12:19 21.6 °C 15.9 °C 1011.2 hPa NE 14.8 km/h 32.8 km/h 70% 0.0 mm CLR
12:24 21.4 °C 16.2 °C 1011.2 hPa NE 14.8 km/h 29.6 km/h 72% 0.0 mm CLR
12:29 21.3 °C 16.1 °C 1011.2 hPa NE 20.9 km/h 27.8 km/h 72% 0.0 mm CLR
12:34 21.6 °C 16.1 °C 1011.3 hPa East 20.9 km/h 18.5 km/h 71% 0.0 mm CLR
12:39 21.7 °C 16.2 °C 1011.3 hPa NE 15.6 km/h 24.1 km/h 71% 0.0 mm CLR
12:44 21.6 °C 16.3 °C 1011.3 hPa NE 15.6 km/h 31.5 km/h 72% 0.0 mm CLR
12:49 21.5 °C 16.2 °C 1011.2 hPa North 19.0 km/h 24.1 km/h 72% 0.0 mm CLR
12:54 21.5 °C 16.2 °C 1011.2 hPa NNE 19.0 km/h 25.9 km/h 72% 0.0 mm CLR
12:59 21.7 °C 16.0 °C 1011.2 hPa NE 17.2 km/h 25.9 km/h 70% 0.0 mm CLR
13:04 21.8 °C 15.6 °C 1011.4 hPa NE 17.2 km/h 30.9 km/h 68% 0.0 mm CLR
13:09 21.7 °C 15.6 °C 1011.4 hPa North 18.3 km/h 29.6 km/h 68% 0.0 mm CLR
13:14 21.8 °C 15.4 °C 1011.4 hPa North 18.3 km/h 29.6 km/h 67% 0.0 mm CLR
13:19 21.9 °C 15.5 °C 1011.6 hPa ENE 22.5 km/h 35.2 km/h 67% 0.0 mm CLR
13:24 21.8 °C 15.4 °C 1011.6 hPa NE 22.5 km/h 27.0 km/h 67% 0.0 mm CLR
13:29 21.8 °C 15.6 °C 1011.6 hPa North 20.1 km/h 24.1 km/h 68% 0.0 mm CLR
13:34 22.1 °C 15.4 °C 1011.3 hPa ENE 20.1 km/h 22.5 km/h 66% 0.0 mm CLR
13:39 22.1 °C 14.9 °C 1011.3 hPa NE 17.2 km/h 33.3 km/h 64% 0.0 mm CLR
13:44 22.3 °C 14.9 °C 1011.3 hPa NE 17.2 km/h 20.4 km/h 63% 0.0 mm CLR
13:49 22.5 °C 15.1 °C 1011.1 hPa NNE 17.2 km/h 22.2 km/h 63% 0.0 mm CLR
13:54 22.7 °C 14.3 °C 1011.1 hPa NE 17.2 km/h 25.9 km/h 59% 0.0 mm CLR
13:59 22.7 °C 14.6 °C 1011.1 hPa NE 16.1 km/h 24.1 km/h 60% 0.0 mm CLR
14:04 22.8 °C 14.6 °C 1010.9 hPa NE 16.1 km/h 29.6 km/h 60% 0.0 mm CLR
14:09 22.8 °C 14.1 °C 1010.9 hPa East 18.3 km/h 29.6 km/h 58% 0.0 mm CLR
14:14 22.8 °C 13.8 °C 1010.9 hPa ENE 18.3 km/h 25.9 km/h 57% 0.0 mm CLR
14:19 22.8 °C 13.0 °C 1010.8 hPa NE 18.3 km/h 24.1 km/h 54% 0.0 mm CLR
14:24 22.8 °C 12.4 °C 1010.8 hPa ENE 18.3 km/h 27.8 km/h 52% 0.0 mm CLR
14:29 22.9 °C 12.5 °C 1010.8 hPa ENE 19.0 km/h 27.8 km/h 52% 0.0 mm CLR
14:34 23.3 °C 12.6 °C 1010.7 hPa NNE 19.0 km/h 24.1 km/h 51% 0.0 mm CLR
14:39 23.5 °C 12.2 °C 1010.7 hPa NE 16.4 km/h 28.6 km/h 49% 0.0 mm CLR
14:44 23.5 °C 12.2 °C 1010.7 hPa East 16.4 km/h 31.5 km/h 49% 0.0 mm CLR
14:49 23.4 °C 12.1 °C 1010.7 hPa ENE 17.2 km/h 31.5 km/h 49% 0.0 mm CLR
14:54 23.3 °C 11.3 °C 1010.7 hPa NE 17.2 km/h 33.3 km/h 47% 0.0 mm CLR
14:59 23.4 °C 11.8 °C 1010.7 hPa NNE 19.8 km/h 20.4 km/h 48% 0.0 mm CLR
15:04 23.5 °C 11.6 °C 1010.5 hPa ENE 19.8 km/h 29.6 km/h 47% 0.0 mm CLR
15:09 23.5 °C 11.8 °C 1010.5 hPa NNE 16.4 km/h 25.9 km/h 48% 0.0 mm CLR
15:14 23.5 °C 10.9 °C 1010.5 hPa NE 16.4 km/h 33.3 km/h 45% 0.0 mm CLR
15:19 23.7 °C 10.7 °C 1010.5 hPa NE 19.8 km/h 39.9 km/h 44% 0.0 mm CLR
15:24 23.5 °C 10.2 °C 1010.5 hPa NE 19.8 km/h 42.6 km/h 43% 0.0 mm CLR
15:29 23.6 °C 9.9 °C 1010.5 hPa NE 25.1 km/h 33.3 km/h 42% 0.0 mm CLR
15:34 23.8 °C 9.8 °C 1010.6 hPa NE 25.1 km/h 20.4 km/h 41% 0.0 mm CLR
15:39 23.8 °C 8.2 °C 1010.6 hPa NE 20.9 km/h 33.3 km/h 37% 0.0 mm CLR
15:44 23.4 °C 9.4 °C 1010.6 hPa East 20.9 km/h 35.2 km/h 41% 0.0 mm CLR
15:49 23.3 °C 9.7 °C 1010.7 hPa NNE 25.1 km/h 42.6 km/h 42% 0.0 mm CLR
15:54 23.2 °C 10.6 °C 1010.7 hPa ENE 25.1 km/h 38.9 km/h 45% 0.0 mm CLR
15:59 23.1 °C 9.8 °C 1010.7 hPa ENE 27.4 km/h 38.9 km/h 43% 0.0 mm CLR
16:04 22.9 °C 9.3 °C 1010.6 hPa NE 27.4 km/h 42.0 km/h 42% 0.0 mm CLR
16:09 22.9 °C 10.0 °C 1010.6 hPa NNE 29.1 km/h 37.0 km/h 44% 0.0 mm CLR
16:14 22.7 °C 10.2 °C 1010.6 hPa NE 29.1 km/h 42.6 km/h 45% 0.0 mm CLR
16:19 22.7 °C 10.2 °C 1010.6 hPa East 26.2 km/h 35.2 km/h 45% 0.0 mm CLR
16:24 22.6 °C 10.1 °C 1010.6 hPa NNE 26.2 km/h 35.2 km/h 45% 0.0 mm CLR
16:29 22.2 °C 9.7 °C 1010.6 hPa NE 23.7 km/h 37.0 km/h 45% 0.0 mm CLR
16:34 22.2 °C 10.0 °C 1010.6 hPa East 23.7 km/h 33.3 km/h 46% 0.0 mm CLR
16:39 22.5 °C 10.6 °C 1010.6 hPa ENE 23.7 km/h 29.1 km/h 47% 0.0 mm CLR
16:44 22.5 °C 11.2 °C 1010.6 hPa ESE 23.7 km/h 32.8 km/h 49% 0.0 mm CLR
16:49 22.6 °C 11.3 °C 1010.8 hPa SE 19.0 km/h 31.5 km/h 49% 0.0 mm CLR
16:54 22.7 °C 11.1 °C 1010.8 hPa East 19.0 km/h 30.6 km/h 48% 0.0 mm CLR
16:59 22.7 °C 11.1 °C 1010.8 hPa NE 20.9 km/h 37.0 km/h 48% 0.0 mm CLR
17:04 22.7 °C 10.5 °C 1010.7 hPa ENE 20.9 km/h 33.3 km/h 46% 0.0 mm CLR
17:09 22.4 °C 8.8 °C 1010.7 hPa East 20.9 km/h 29.6 km/h 42% 0.0 mm CLR
17:14 22.3 °C 9.1 °C 1010.7 hPa NE 20.9 km/h 24.1 km/h 43% 0.0 mm CLR
17:19 22.2 °C 9.4 °C 1010.8 hPa NE 19.8 km/h 25.9 km/h 44% 0.0 mm CLR
17:24 22.1 °C 8.6 °C 1010.8 hPa NE 19.8 km/h 33.5 km/h 42% 0.0 mm CLR
17:29 21.9 °C 8.1 °C 1010.8 hPa NNE 20.1 km/h 29.6 km/h 41% 0.0 mm CLR
17:34 21.8 °C 8.7 °C 1011.0 hPa NNE 20.1 km/h 33.3 km/h 43% 0.0 mm CLR
17:39 21.7 °C 8.2 °C 1011.0 hPa ENE 20.9 km/h 31.5 km/h 42% 0.0 mm CLR
17:44 21.6 °C 8.5 °C 1011.0 hPa NE 20.9 km/h 40.7 km/h 43% 0.0 mm CLR
17:49 21.4 °C 8.3 °C 1010.6 hPa NE 23.3 km/h 29.6 km/h 43% 0.0 mm CLR
17:54 21.3 °C 9.2 °C 1010.6 hPa NE 23.3 km/h 35.2 km/h 46% 0.0 mm CLR
17:59 21.1 °C 9.0 °C 1010.6 hPa NE 19.0 km/h 35.2 km/h 46% 0.0 mm CLR
18:04 20.9 °C 9.2 °C 1010.7 hPa NE 19.0 km/h 34.3 km/h 47% 0.0 mm CLR
18:09 20.8 °C 9.1 °C 1010.7 hPa East 21.7 km/h 27.8 km/h 47% 0.0 mm CLR
18:14 20.7 °C 9.3 °C 1010.7 hPa NW 21.7 km/h 31.5 km/h 48% 0.0 mm CLR
18:19 20.6 °C 9.8 °C 1011.2 hPa North 20.9 km/h 35.2 km/h 50% 0.0 mm CLR
18:24 20.5 °C 9.7 °C 1011.2 hPa NE 20.9 km/h 25.9 km/h 50% 0.0 mm CLR
18:29 20.5 °C 9.7 °C 1011.2 hPa NE 19.8 km/h 35.2 km/h 50% 0.0 mm CLR
18:34 20.4 °C 9.6 °C 1011.0 hPa ENE 19.8 km/h 33.3 km/h 50% 0.0 mm CLR
18:39 20.4 °C 9.9 °C 1011.0 hPa ENE 23.3 km/h 27.8 km/h 51% 0.0 mm CLR
18:44 20.3 °C 9.8 °C 1011.0 hPa NE 23.3 km/h 29.6 km/h 51% 0.0 mm CLR
18:49 20.3 °C 9.8 °C 1011.0 hPa ESE 20.9 km/h 29.6 km/h 51% 0.0 mm CLR
18:54 20.2 °C 10.0 °C 1011.0 hPa NNE 20.9 km/h 33.3 km/h 52% 0.0 mm CLR
18:59 20.2 °C 10.3 °C 1011.0 hPa NNE 17.2 km/h 20.4 km/h 53% 0.0 mm CLR
19:04 20.1 °C 10.2 °C 1011.7 hPa NE 17.2 km/h 18.3 km/h 53% 0.0 mm CLR
19:09 19.9 °C 9.7 °C 1011.7 hPa NE 16.1 km/h 29.6 km/h 52% 0.0 mm CLR
19:14 19.8 °C 9.9 °C 1011.7 hPa NNE 16.1 km/h 31.5 km/h 53% 0.0 mm CLR
19:19 19.7 °C 10.1 °C 1012.5 hPa NE 20.9 km/h 27.8 km/h 54% 0.0 mm CLR
19:24 19.6 °C 10.3 °C 1012.5 hPa NE 20.9 km/h 20.4 km/h 55% 0.0 mm CLR
19:29 19.4 °C 10.7 °C 1012.5 hPa NNE 16.1 km/h 14.8 km/h 57% 0.0 mm CLR
19:34 19.3 °C 11.1 °C 1012.9 hPa NNE 16.1 km/h 14.8 km/h 59% 0.0 mm CLR
19:39 19.1 °C 10.7 °C 1012.9 hPa North 9.5 km/h 11.1 km/h 58% 0.0 mm CLR
19:44 18.9 °C 10.7 °C 1012.9 hPa North 9.5 km/h 9.3 km/h 59% 0.5 mm RA
19:49 18.8 °C 11.1 °C 1013.4 hPa NNW 5.8 km/h 7.6 km/h 61% 0.8 mm RA
19:54 18.5 °C 11.6 °C 1013.4 hPa NE 5.8 km/h 11.1 km/h 64% 1.0 mm RA
19:59 18.1 °C 11.7 °C 1013.4 hPa ENE 6.4 km/h 14.8 km/h 66% 1.3 mm RA
20:04 17.6 °C 10.9 °C 1013.3 hPa NNE 6.4 km/h 18.5 km/h 65% 1.5 mm RA
20:09 17.3 °C 11.1 °C 1013.3 hPa NE 11.9 km/h 18.5 km/h 67% 1.8 mm RA
20:14 17.0 °C 11.5 °C 1013.3 hPa East 11.9 km/h 18.5 km/h 70% 2.3 mm RA
20:19 16.8 °C 11.9 °C 1012.2 hPa NE 13.0 km/h 20.4 km/h 73% 2.8 mm RA
20:24 16.6 °C 12.2 °C 1012.2 hPa NE 13.0 km/h 13.0 km/h 75% 3.3 mm RA
20:29 16.4 °C 11.8 °C 1012.2 hPa NNE 10.0 km/h 17.2 km/h 74% 3.3 mm RA
20:34 16.4 °C 11.6 °C 1012.4 hPa NE 10.0 km/h 11.1 km/h 73% 3.3 mm CLR
20:39 16.4 °C 11.6 °C 1012.4 hPa NE 9.5 km/h 13.0 km/h 73% 3.3 mm CLR
20:44 16.4 °C 11.6 °C 1012.4 hPa NNW 9.5 km/h 13.0 km/h 73% 2.8 mm CLR
20:49 16.4 °C 11.1 °C 1012.4 hPa NE 6.4 km/h 9.3 km/h 71% 2.5 mm CLR
20:54 16.5 °C 11.0 °C 1012.4 hPa ENE 6.4 km/h 15.6 km/h 70% 2.3 mm CLR
20:59 16.5 °C 11.2 °C 1012.4 hPa NNE 7.6 km/h 11.1 km/h 71% 2.0 mm CLR
21:04 16.6 °C 11.7 °C 1012.7 hPa NNW 7.6 km/h 9.3 km/h 73% 1.8 mm CLR
21:09 16.5 °C 11.8 °C 1012.7 hPa NW 6.4 km/h 11.9 km/h 74% 1.5 mm CLR
21:14 16.4 °C 11.9 °C 1012.7 hPa WNW 6.4 km/h 11.1 km/h 75% 1.0 mm CLR
21:19 16.4 °C 12.2 °C 1013.1 hPa NW 7.6 km/h 9.3 km/h 76% 0.5 mm CLR
21:24 16.3 °C 12.3 °C 1013.1 hPa West 7.6 km/h 7.4 km/h 77% 0.0 mm CLR
21:29 16.4 °C 12.3 °C 1013.1 hPa WSW 5.0 km/h 7.4 km/h 77% 0.0 mm CLR
21:34 16.4 °C 12.2 °C 1013.3 hPa West 5.0 km/h 7.4 km/h 76% 0.0 mm CLR
21:39 16.5 °C 12.1 °C 1013.3 hPa West 4.7 km/h 8.4 km/h 75% 0.0 mm CLR
21:44 16.6 °C 12.2 °C 1013.3 hPa West 4.7 km/h 11.1 km/h 75% 0.0 mm CLR
21:49 16.6 °C 12.2 °C 1013.5 hPa WNW 6.4 km/h 8.7 km/h 75% 0.0 mm CLR
21:54 16.6 °C 12.2 °C 1013.5 hPa West 6.4 km/h 9.3 km/h 75% 0.0 mm CLR
21:59 16.6 °C 12.2 °C 1013.5 hPa NW 6.4 km/h 11.1 km/h 75% 0.0 mm CLR
22:04 16.6 °C 11.9 °C 1013.7 hPa WSW 6.4 km/h 7.6 km/h 74% 0.0 mm CLR
22:09 16.7 °C 12.1 °C 1013.7 hPa West 5.8 km/h 9.3 km/h 74% 0.0 mm CLR
22:14 16.7 °C 12.1 °C 1013.7 hPa SW 5.8 km/h 9.3 km/h 74% 0.0 mm CLR
22:19 16.7 °C 11.8 °C 1013.8 hPa West 5.0 km/h 11.1 km/h 73% 0.0 mm CLR
22:24 16.8 °C 11.9 °C 1013.8 hPa WNW 5.0 km/h 9.3 km/h 73% 0.0 mm CLR
22:29 16.8 °C 11.7 °C 1013.8 hPa WSW 5.0 km/h 7.4 km/h 72% 0.0 mm CLR
22:34 16.8 °C 11.7 °C 1013.9 hPa West 5.0 km/h 5.6 km/h 72% 0.0 mm CLR
22:39 16.9 °C 12.0 °C 1013.9 hPa West 3.2 km/h 7.4 km/h 73% 0.0 mm CLR
22:44 16.9 °C 11.8 °C 1013.9 hPa SW 3.2 km/h 7.4 km/h 72% 0.0 mm CLR
22:49 16.9 °C 11.6 °C 1014.1 hPa SW 5.0 km/h 7.4 km/h 71% 0.0 mm CLR
22:54 16.9 °C 11.6 °C 1014.1 hPa SW 5.0 km/h 7.6 km/h 71% 0.0 mm CLR
22:59 17.0 °C 11.9 °C 1014.1 hPa South 5.0 km/h 9.3 km/h 72% 0.0 mm CLR
23:04 16.9 °C 12.2 °C 1014.1 hPa South 5.0 km/h 9.3 km/h 74% 0.0 mm CLR
23:09 16.7 °C 12.2 °C 1014.1 hPa SSW 7.6 km/h 13.0 km/h 75% 0.0 mm CLR
23:14 16.5 °C 12.3 °C 1014.1 hPa SSW 7.6 km/h 13.0 km/h 76% 0.0 mm CLR
23:19 16.4 °C 11.9 °C 1014.1 hPa SSW 10.0 km/h 13.0 km/h 75% 0.0 mm CLR
23:24 16.4 °C 11.9 °C 1014.1 hPa South 10.0 km/h 14.8 km/h 75% 0.0 mm CLR
23:29 16.4 °C 11.9 °C 1014.1 hPa SSW 9.5 km/h 13.0 km/h 75% 0.0 mm CLR
23:34 16.4 °C 11.8 °C 1014.0 hPa SSW 9.5 km/h 11.1 km/h 74% 0.0 mm CLR
23:39 16.4 °C 11.8 °C 1014.0 hPa SW 8.4 km/h 11.1 km/h 74% 0.0 mm CLR
23:44 16.4 °C 11.8 °C 1014.0 hPa SSW 8.4 km/h 7.6 km/h 74% 0.0 mm CLR
23:49 16.4 °C 11.6 °C 1014.1 hPa SW 6.9 km/h 13.0 km/h 73% 0.0 mm CLR
23:54 16.4 °C 11.6 °C 1014.1 hPa SW 6.9 km/h 11.1 km/h 73% 0.0 mm CLR
23:59 16.4 °C 11.6 °C 1014.1 hPa WSW 6.9 km/h 13.0 km/h 73% 0.0 mm CLR
Murcia-Puente Tocinos, España
Compliments of Weather Underground - 2.75 mb

La estación de MeteoMurcia.com, publica sus datos en los siguientes proyectos:

Weather Underground PWS IMURCIAP2 Meteoclimatic www.awekas.at

W3Counter
Web Analytics